sensor_id;sensor_type;location;lat;lon;timestamp;pressure;altitude;pressure_sealevel;temperature;humidity
56042;BME280;48756;41.374;2.066;2023-02-28T00:02:14;100518.50;;;6.66;41.62
56042;BME280;48756;41.374;2.066;2023-02-28T00:04:42;100512.50;;;6.89;40.29
56042;BME280;48756;41.374;2.066;2023-02-28T00:07:08;100525.44;;;6.80;40.83
56042;BME280;48756;41.374;2.066;2023-02-28T00:09:33;100507.38;;;7.07;41.58
56042;BME280;48756;41.374;2.066;2023-02-28T00:11:59;100510.78;;;6.94;41.27
56042;BME280;48756;41.374;2.066;2023-02-28T00:14:24;100523.72;;;6.95;41.70
56042;BME280;48756;41.374;2.066;2023-02-28T00:16:50;100515.03;;;6.70;41.50
56042;BME280;48756;41.374;2.066;2023-02-28T00:19:15;100515.09;;;6.89;41.80
56042;BME280;48756;41.374;2.066;2023-02-28T00:21:41;100519.34;;;6.65;41.86
56042;BME280;48756;41.374;2.066;2023-02-28T00:24:08;100527.13;;;6.70;42.48
56042;BME280;48756;41.374;2.066;2023-02-28T00:26:33;100521.94;;;6.61;42.90
56042;BME280;48756;41.374;2.066;2023-02-28T00:28:59;100524.59;;;6.96;41.78
56042;BME280;48756;41.374;2.066;2023-02-28T00:31:24;100528.91;;;6.97;42.72
56042;BME280;48756;41.374;2.066;2023-02-28T00:33:50;100524.53;;;6.73;43.13
56042;BME280;48756;41.374;2.066;2023-02-28T00:36:16;100529.72;;;6.74;44.57
56042;BME280;48756;41.374;2.066;2023-02-28T00:38:42;100508.06;;;6.39;45.66
56042;BME280;48756;41.374;2.066;2023-02-28T00:41:08;100510.53;;;6.14;45.88
56042;BME280;48756;41.374;2.066;2023-02-28T00:43:35;100517.44;;;6.22;47.56
56042;BME280;48756;41.374;2.066;2023-02-28T00:46:01;100505.31;;;6.08;47.22
56042;BME280;48756;41.374;2.066;2023-02-28T00:48:27;100494.06;;;5.97;48.02
56042;BME280;48756;41.374;2.066;2023-02-28T00:50:53;100491.47;;;5.99;47.51
56042;BME280;48756;41.374;2.066;2023-02-28T00:53:19;100483.72;;;6.02;48.70
56042;BME280;48756;41.374;2.066;2023-02-28T00:55:44;100478.50;;;5.91;49.46
56042;BME280;48756;41.374;2.066;2023-02-28T00:58:09;100465.47;;;5.82;49.13
56042;BME280;48756;41.374;2.066;2023-02-28T01:00:35;100445.75;;;5.93;49.98
56042;BME280;48756;41.374;2.066;2023-02-28T01:03:00;100447.50;;;5.99;49.58
56042;BME280;48756;41.374;2.066;2023-02-28T01:05:26;100448.25;;;5.84;49.60
56042;BME280;48756;41.374;2.066;2023-02-28T01:07:52;100445.88;;;6.19;50.65
56042;BME280;48756;41.374;2.066;2023-02-28T01:10:17;100433.72;;;6.03;50.04
56042;BME280;48756;41.374;2.066;2023-02-28T01:12:43;100439.91;;;6.40;50.84
56042;BME280;48756;41.374;2.066;2023-02-28T01:15:10;100441.63;;;6.50;50.86
56042;BME280;48756;41.374;2.066;2023-02-28T01:17:36;100450.31;;;6.67;49.91
56042;BME280;48756;41.374;2.066;2023-02-28T01:20:02;100441.53;;;6.12;50.51
56042;BME280;48756;41.374;2.066;2023-02-28T01:22:28;100433.81;;;6.30;52.41
56042;BME280;48756;41.374;2.066;2023-02-28T01:24:53;100435.50;;;6.11;52.58
56042;BME280;48756;41.374;2.066;2023-02-28T01:27:19;100411.16;;;5.79;53.89
56042;BME280;48756;41.374;2.066;2023-02-28T01:29:45;100423.09;;;5.49;53.59
56042;BME280;48756;41.374;2.066;2023-02-28T01:32:10;100436.78;;;5.39;53.08
56042;BME280;48756;41.374;2.066;2023-02-28T01:34:36;100433.41;;;5.45;52.93
56042;BME280;48756;41.374;2.066;2023-02-28T01:37:01;100428.25;;;5.51;52.47
56042;BME280;48756;41.374;2.066;2023-02-28T01:39:28;100438.59;;;5.51;51.65
56042;BME280;48756;41.374;2.066;2023-02-28T01:41:54;100441.13;;;5.43;51.50
56042;BME280;48756;41.374;2.066;2023-02-28T01:47:27;100427.16;;;5.20;52.07
56042;BME280;48756;41.374;2.066;2023-02-28T01:49:54;100428.94;;;5.24;53.52
56042;BME280;48756;41.374;2.066;2023-02-28T01:52:21;100433.22;;;5.20;52.93
56042;BME280;48756;41.374;2.066;2023-02-28T01:54:52;100434.94;;;5.21;49.96
56042;BME280;48756;41.374;2.066;2023-02-28T01:57:24;100452.88;;;5.05;50.59
56042;BME280;48756;41.374;2.066;2023-02-28T01:59:54;100448.78;;;5.30;50.43
56042;BME280;48756;41.374;2.066;2023-02-28T02:02:24;100435.91;;;5.40;51.31
56042;BME280;48756;41.374;2.066;2023-02-28T02:07:29;100436.72;;;5.30;50.01
56042;BME280;48756;41.374;2.066;2023-02-28T02:10:03;100432.31;;;5.18;49.97
56042;BME280;48756;41.374;2.066;2023-02-28T02:15:53;100432.50;;;5.43;48.58
56042;BME280;48756;41.374;2.066;2023-02-28T02:18:39;100424.78;;;5.46;48.92
56042;BME280;48756;41.374;2.066;2023-02-28T02:38:16;100406.84;;;5.72;47.99
56042;BME280;48756;41.374;2.066;2023-02-28T02:41:09;100429.00;;;5.33;48.38
56042;BME280;48756;41.374;2.066;2023-02-28T02:43:48;100429.09;;;5.45;48.38
56042;BME280;48756;41.374;2.066;2023-02-28T02:46:22;100439.44;;;5.48;48.46
56042;BME280;48756;41.374;2.066;2023-02-28T02:48:49;100422.22;;;5.47;48.12
56042;BME280;48756;41.374;2.066;2023-02-28T02:51:17;100432.53;;;5.44;48.61
56042;BME280;48756;41.374;2.066;2023-02-28T02:54:02;100418.66;;;5.35;48.74
56042;BME280;48756;41.374;2.066;2023-02-28T02:56:31;100421.41;;;5.59;48.23
56042;BME280;48756;41.374;2.066;2023-02-28T02:59:07;100410.91;;;5.32;48.48
56042;BME280;48756;41.374;2.066;2023-02-28T03:01:35;100439.31;;;5.30;48.34
56042;BME280;48756;41.374;2.066;2023-02-28T03:04:08;100443.66;;;5.34;47.45
56042;BME280;48756;41.374;2.066;2023-02-28T03:06:34;100443.59;;;5.27;48.28
56042;BME280;48756;41.374;2.066;2023-02-28T03:09:01;100440.22;;;5.41;48.68
56042;BME280;48756;41.374;2.066;2023-02-28T03:11:26;100447.91;;;5.26;48.08
56042;BME280;48756;41.374;2.066;2023-02-28T03:20:06;100446.09;;;5.17;47.06
56042;BME280;48756;41.374;2.066;2023-02-28T03:27:52;100459.78;;;5.06;48.40
56042;BME280;48756;41.374;2.066;2023-02-28T03:30:24;100462.44;;;5.15;48.06
56042;BME280;48756;41.374;2.066;2023-02-28T03:32:57;100453.63;;;4.91;48.17
56042;BME280;48756;41.374;2.066;2023-02-28T03:35:40;100467.41;;;4.92;48.17
56042;BME280;48756;41.374;2.066;2023-02-28T03:38:21;100463.09;;;4.92;48.96
56042;BME280;48756;41.374;2.066;2023-02-28T03:40:50;100469.88;;;4.78;48.68
56042;BME280;48756;41.374;2.066;2023-02-28T03:43:31;100459.56;;;4.80;48.66
56042;BME280;48756;41.374;2.066;2023-02-28T03:46:01;100469.78;;;4.71;48.92
56042;BME280;48756;41.374;2.066;2023-02-28T03:48:40;100463.06;;;4.89;49.15
56042;BME280;48756;41.374;2.066;2023-02-28T03:51:10;100460.47;;;4.88;48.76
56042;BME280;48756;41.374;2.066;2023-02-28T03:53:43;100459.53;;;4.77;48.07
56042;BME280;48756;41.374;2.066;2023-02-28T03:56:22;100474.31;;;4.95;48.51
56042;BME280;48756;41.374;2.066;2023-02-28T03:59:06;100469.09;;;4.90;48.67
56042;BME280;48756;41.374;2.066;2023-02-28T04:01:43;100476.88;;;4.95;48.51
56042;BME280;48756;41.374;2.066;2023-02-28T04:04:10;100487.19;;;4.90;48.01
56042;BME280;48756;41.374;2.066;2023-02-28T04:06:36;100499.28;;;4.97;48.17
56042;BME280;48756;41.374;2.066;2023-02-28T04:09:04;100491.59;;;4.99;47.98
56042;BME280;48756;41.374;2.066;2023-02-28T04:14:06;100494.06;;;4.91;49.22
56042;BME280;48756;41.374;2.066;2023-02-28T04:16:33;100493.34;;;5.04;48.92
56042;BME280;48756;41.374;2.066;2023-02-28T04:18:59;100489.00;;;5.00;48.74
56042;BME280;48756;41.374;2.066;2023-02-28T04:21:48;100505.16;;;4.79;49.08
56042;BME280;48756;41.374;2.066;2023-02-28T04:24:17;100501.59;;;4.71;49.14
56042;BME280;48756;41.374;2.066;2023-02-28T04:26:49;100515.63;;;4.96;49.69
56042;BME280;48756;41.374;2.066;2023-02-28T04:29:22;100511.06;;;4.71;48.87
56042;BME280;48756;41.374;2.066;2023-02-28T04:31:48;100516.31;;;4.77;48.75
56042;BME280;48756;41.374;2.066;2023-02-28T04:34:13;100524.09;;;4.81;48.74
56042;BME280;48756;41.374;2.066;2023-02-28T04:36:39;100519.84;;;4.88;49.59
56042;BME280;48756;41.374;2.066;2023-02-28T04:39:04;100534.41;;;4.80;48.72
56042;BME280;48756;41.374;2.066;2023-02-28T04:41:30;100531.69;;;4.68;49.81
56042;BME280;48756;41.374;2.066;2023-02-28T04:43:55;100535.25;;;4.77;50.45
56042;BME280;48756;41.374;2.066;2023-02-28T04:46:22;100536.16;;;4.84;50.14
56042;BME280;48756;41.374;2.066;2023-02-28T04:48:47;100553.41;;;4.85;49.82
56042;BME280;48756;41.374;2.066;2023-02-28T04:51:15;100535.28;;;4.80;49.26
56042;BME280;48756;41.374;2.066;2023-02-28T04:53:41;100532.72;;;4.83;49.84
56042;BME280;48756;41.374;2.066;2023-02-28T04:56:10;100535.97;;;4.66;49.53
56042;BME280;48756;41.374;2.066;2023-02-28T04:58:36;100540.22;;;4.62;50.01
56042;BME280;48756;41.374;2.066;2023-02-28T05:01:14;100539.22;;;4.49;50.29
56042;BME280;48756;41.374;2.066;2023-02-28T05:03:41;100537.75;;;4.71;50.43
56042;BME280;48756;41.374;2.066;2023-02-28T05:06:08;100542.03;;;4.71;50.23
56042;BME280;48756;41.374;2.066;2023-02-28T05:08:34;100552.94;;;4.47;50.07
56042;BME280;48756;41.374;2.066;2023-02-28T05:11:00;100534.25;;;4.66;50.52
56042;BME280;48756;41.374;2.066;2023-02-28T05:13:26;100542.91;;;4.71;50.91
56042;BME280;48756;41.374;2.066;2023-02-28T05:15:52;100544.59;;;4.69;50.94
56042;BME280;48756;41.374;2.066;2023-02-28T05:18:17;100542.06;;;4.72;50.77
56042;BME280;48756;41.374;2.066;2023-02-28T05:20:43;100563.41;;;4.57;50.43
56042;BME280;48756;41.374;2.066;2023-02-28T05:23:11;100566.94;;;4.66;49.75
56042;BME280;48756;41.374;2.066;2023-02-28T05:25:38;100566.25;;;4.79;50.26
56042;BME280;48756;41.374;2.066;2023-02-28T05:28:03;100572.19;;;4.75;50.68
56042;BME280;48756;41.374;2.066;2023-02-28T05:30:29;100577.53;;;4.88;50.51
56042;BME280;48756;41.374;2.066;2023-02-28T05:32:55;100580.94;;;4.87;50.06
56042;BME280;48756;41.374;2.066;2023-02-28T05:35:20;100623.03;;;4.79;50.89
56042;BME280;48756;41.374;2.066;2023-02-28T05:37:46;100590.41;;;4.85;50.16
56042;BME280;48756;41.374;2.066;2023-02-28T05:40:12;100600.56;;;4.73;51.14
56042;BME280;48756;41.374;2.066;2023-02-28T05:42:38;100586.94;;;4.85;53.73
56042;BME280;48756;41.374;2.066;2023-02-28T05:45:04;100594.38;;;4.57;53.87
56042;BME280;48756;41.374;2.066;2023-02-28T05:47:30;100583.28;;;4.66;54.18
56042;BME280;48756;41.374;2.066;2023-02-28T05:49:56;100588.59;;;4.77;54.57
56042;BME280;48756;41.374;2.066;2023-02-28T05:52:22;100579.97;;;4.76;54.92
56042;BME280;48756;41.374;2.066;2023-02-28T05:54:47;100573.53;;;4.44;53.64
56042;BME280;48756;41.374;2.066;2023-02-28T05:57:13;100574.81;;;4.76;54.30
56042;BME280;48756;41.374;2.066;2023-02-28T05:59:38;100588.38;;;4.58;53.76
56042;BME280;48756;41.374;2.066;2023-02-28T06:02:06;100588.16;;;4.45;52.97
56042;BME280;48756;41.374;2.066;2023-02-28T06:04:36;100591.81;;;4.60;53.67
56042;BME280;48756;41.374;2.066;2023-02-28T06:07:01;100589.22;;;4.59;52.20
56042;BME280;48756;41.374;2.066;2023-02-28T06:09:27;100592.94;;;4.82;53.44
56042;BME280;48756;41.374;2.066;2023-02-28T06:11:52;100594.41;;;4.62;53.13
56042;BME280;48756;41.374;2.066;2023-02-28T06:14:19;100594.47;;;4.67;52.85
56042;BME280;48756;41.374;2.066;2023-02-28T06:16:45;100597.06;;;4.68;52.22
56042;BME280;48756;41.374;2.066;2023-02-28T06:19:11;100609.88;;;4.59;52.00
56042;BME280;48756;41.374;2.066;2023-02-28T06:21:37;100603.22;;;4.76;51.87
56042;BME280;48756;41.374;2.066;2023-02-28T06:24:03;100606.66;;;4.77;52.31
56042;BME280;48756;41.374;2.066;2023-02-28T06:26:29;100599.66;;;4.68;52.12
56042;BME280;48756;41.374;2.066;2023-02-28T06:28:55;100598.94;;;4.78;51.84
56042;BME280;48756;41.374;2.066;2023-02-28T06:31:20;100599.97;;;4.97;51.31
56042;BME280;48756;41.374;2.066;2023-02-28T06:33:48;100594.75;;;4.89;51.91
56042;BME280;48756;41.374;2.066;2023-02-28T06:36:15;100601.63;;;4.89;51.80
56042;BME280;48756;41.374;2.066;2023-02-28T06:38:42;100598.13;;;4.82;51.97
56042;BME280;48756;41.374;2.066;2023-02-28T06:41:08;100599.72;;;4.74;51.31
56042;BME280;48756;41.374;2.066;2023-02-28T06:43:35;100606.66;;;4.75;51.77
56042;BME280;48756;41.374;2.066;2023-02-28T06:46:03;100606.66;;;4.75;51.27
56042;BME280;48756;41.374;2.066;2023-02-28T06:48:29;100607.50;;;4.76;51.19
56042;BME280;48756;41.374;2.066;2023-02-28T06:51:07;100624.81;;;4.84;50.55
56042;BME280;48756;41.374;2.066;2023-02-28T06:53:34;100651.13;;;4.56;51.04
56042;BME280;48756;41.374;2.066;2023-02-28T06:56:03;100632.19;;;4.55;51.76
56042;BME280;48756;41.374;2.066;2023-02-28T06:58:30;100657.22;;;4.61;50.84
56042;BME280;48756;41.374;2.066;2023-02-28T07:00:56;100635.78;;;4.68;51.69
56042;BME280;48756;41.374;2.066;2023-02-28T07:03:21;100628.84;;;4.64;51.28
56042;BME280;48756;41.374;2.066;2023-02-28T07:05:47;100622.81;;;4.62;51.26
56042;BME280;48756;41.374;2.066;2023-02-28T07:08:12;100640.94;;;4.68;51.64
56042;BME280;48756;41.374;2.066;2023-02-28T07:10:56;100636.88;;;4.87;51.63
56042;BME280;48756;41.374;2.066;2023-02-28T07:13:22;100631.56;;;4.75;51.26
56042;BME280;48756;41.374;2.066;2023-02-28T07:16:06;100644.63;;;4.85;50.52
56042;BME280;48756;41.374;2.066;2023-02-28T07:18:34;100655.53;;;4.65;51.57
56042;BME280;48756;41.374;2.066;2023-02-28T07:21:07;100655.81;;;4.86;51.10
56042;BME280;48756;41.374;2.066;2023-02-28T07:23:33;100658.06;;;4.60;51.52
56042;BME280;48756;41.374;2.066;2023-02-28T07:26:01;100656.59;;;4.79;52.12
56042;BME280;48756;41.374;2.066;2023-02-28T07:28:27;100665.66;;;4.51;52.02
56042;BME280;48756;41.374;2.066;2023-02-28T07:31:03;100678.81;;;4.69;52.38
56042;BME280;48756;41.374;2.066;2023-02-28T07:33:28;100670.88;;;4.54;52.22
56042;BME280;48756;41.374;2.066;2023-02-28T07:36:00;100678.69;;;4.58;52.25
56042;BME280;48756;41.374;2.066;2023-02-28T07:38:26;100690.47;;;4.41;52.09
56042;BME280;48756;41.374;2.066;2023-02-28T07:40:52;100700.31;;;4.68;51.37
56042;BME280;48756;41.374;2.066;2023-02-28T07:43:17;100697.72;;;4.67;51.83
56042;BME280;48756;41.374;2.066;2023-02-28T07:45:42;100690.69;;;4.56;50.62
56042;BME280;48756;41.374;2.066;2023-02-28T07:48:08;100693.44;;;4.69;51.96
56042;BME280;48756;41.374;2.066;2023-02-28T07:50:35;100719.19;;;4.64;51.33
56042;BME280;48756;41.374;2.066;2023-02-28T07:53:02;100720.88;;;4.62;51.61
56042;BME280;48756;41.374;2.066;2023-02-28T07:55:30;100733.66;;;4.53;51.94
56042;BME280;48756;41.374;2.066;2023-02-28T07:57:57;100735.56;;;4.68;51.66
56042;BME280;48756;41.374;2.066;2023-02-28T08:00:23;100729.72;;;4.79;51.78
56042;BME280;48756;41.374;2.066;2023-02-28T08:02:49;100734.78;;;4.72;51.73
56042;BME280;48756;41.374;2.066;2023-02-28T08:05:15;100739.69;;;4.53;52.85
56042;BME280;48756;41.374;2.066;2023-02-28T08:07:46;100748.50;;;4.69;51.70
56042;BME280;48756;41.374;2.066;2023-02-28T08:10:14;100774.16;;;4.58;52.18
56042;BME280;48756;41.374;2.066;2023-02-28T08:12:40;100773.28;;;4.56;52.41
56042;BME280;48756;41.374;2.066;2023-02-28T08:15:06;100787.94;;;4.59;51.72
56042;BME280;48756;41.374;2.066;2023-02-28T08:17:31;100791.56;;;4.72;51.97
56042;BME280;48756;41.374;2.066;2023-02-28T08:19:57;100796.00;;;4.79;51.83
56042;BME280;48756;41.374;2.066;2023-02-28T08:22:22;100791.75;;;4.84;51.52
56042;BME280;48756;41.374;2.066;2023-02-28T08:24:48;100802.72;;;4.71;52.25
56042;BME280;48756;41.374;2.066;2023-02-28T08:27:16;100799.28;;;4.70;52.79
56042;BME280;48756;41.374;2.066;2023-02-28T08:29:42;100795.16;;;4.81;51.39
56042;BME280;48756;41.374;2.066;2023-02-28T08:32:07;100795.31;;;4.93;52.95
56042;BME280;48756;41.374;2.066;2023-02-28T08:34:33;100784.38;;;5.11;52.62
56042;BME280;48756;41.374;2.066;2023-02-28T08:36:58;100796.03;;;4.83;52.94
56042;BME280;48756;41.374;2.066;2023-02-28T08:39:27;100776.00;;;5.29;52.82
56042;BME280;48756;41.374;2.066;2023-02-28T08:41:52;100786.09;;;5.11;52.33
56042;BME280;48756;41.374;2.066;2023-02-28T08:44:20;100802.44;;;5.10;52.39
56042;BME280;48756;41.374;2.066;2023-02-28T08:46:45;100791.22;;;5.06;51.57
56042;BME280;48756;41.374;2.066;2023-02-28T08:49:11;100798.31;;;5.22;51.24
56042;BME280;48756;41.374;2.066;2023-02-28T08:51:40;100791.22;;;5.08;51.06
56042;BME280;48756;41.374;2.066;2023-02-28T08:54:07;100790.50;;;5.19;50.38
56042;BME280;48756;41.374;2.066;2023-02-28T08:56:33;100779.50;;;5.33;50.92
56042;BME280;48756;41.374;2.066;2023-02-28T08:59:01;100780.72;;;5.65;50.49
56042;BME280;48756;41.374;2.066;2023-02-28T09:01:28;100793.16;;;5.94;50.36
56042;BME280;48756;41.374;2.066;2023-02-28T09:03:55;100780.00;;;5.74;49.83
56042;BME280;48756;41.374;2.066;2023-02-28T09:06:23;100797.66;;;5.40;50.35
56042;BME280;48756;41.374;2.066;2023-02-28T09:08:49;100799.56;;;5.52;49.33
56042;BME280;48756;41.374;2.066;2023-02-28T09:11:15;100800.31;;;5.43;51.12
56042;BME280;48756;41.374;2.066;2023-02-28T09:13:40;100792.78;;;5.63;50.84
56042;BME280;48756;41.374;2.066;2023-02-28T09:16:11;100803.28;;;5.75;50.77
56042;BME280;48756;41.374;2.066;2023-02-28T09:18:37;100809.53;;;5.91;49.91
56042;BME280;48756;41.374;2.066;2023-02-28T09:21:04;100800.22;;;6.10;50.00
56042;BME280;48756;41.374;2.066;2023-02-28T09:23:30;100800.09;;;5.98;49.45
56042;BME280;48756;41.374;2.066;2023-02-28T09:25:56;100806.31;;;6.15;50.18
56042;BME280;48756;41.374;2.066;2023-02-28T09:28:24;100812.13;;;5.94;50.09
56042;BME280;48756;41.374;2.066;2023-02-28T09:30:52;100807.84;;;5.95;49.54
56042;BME280;48756;41.374;2.066;2023-02-28T09:33:22;100821.63;;;5.95;49.52
56042;BME280;48756;41.374;2.066;2023-02-28T09:35:58;100830.25;;;5.96;50.20
56042;BME280;48756;41.374;2.066;2023-02-28T09:38:23;100823.38;;;5.96;49.83
56042;BME280;48756;41.374;2.066;2023-02-28T09:40:54;100809.84;;;6.25;49.71
56042;BME280;48756;41.374;2.066;2023-02-28T09:43:23;100824.69;;;6.42;49.00
56042;BME280;48756;41.374;2.066;2023-02-28T09:46:27;100841.66;;;6.14;49.09
56042;BME280;48756;41.374;2.066;2023-02-28T09:48:55;100840.16;;;6.36;49.16
56042;BME280;48756;41.374;2.066;2023-02-28T09:54:12;100849.63;;;6.34;48.56
56042;BME280;48756;41.374;2.066;2023-02-28T09:56:41;100849.88;;;6.60;48.93
56042;BME280;48756;41.374;2.066;2023-02-28T10:06:47;100834.31;;;6.59;49.70
56042;BME280;48756;41.374;2.066;2023-02-28T10:09:26;100834.34;;;6.63;49.60
56042;BME280;48756;41.374;2.066;2023-02-28T10:11:59;100835.25;;;6.68;48.49
56042;BME280;48756;41.374;2.066;2023-02-28T10:14:29;100844.06;;;6.95;48.38
56042;BME280;48756;41.374;2.066;2023-02-28T10:17:21;100834.59;;;6.98;48.03
56042;BME280;48756;41.374;2.066;2023-02-28T10:22:52;100846.09;;;7.46;46.75
56042;BME280;48756;41.374;2.066;2023-02-28T10:25:28;100841.75;;;7.41;46.44
56042;BME280;48756;41.374;2.066;2023-02-28T10:28:05;100856.41;;;7.28;47.49
56042;BME280;48756;41.374;2.066;2023-02-28T10:30:33;100850.56;;;7.72;47.35
56042;BME280;48756;41.374;2.066;2023-02-28T10:32:59;100874.03;;;8.08;45.62
56042;BME280;48756;41.374;2.066;2023-02-28T10:35:26;100867.91;;;7.88;46.17
56042;BME280;48756;41.374;2.066;2023-02-28T10:37:59;100873.09;;;7.86;45.51
56042;BME280;48756;41.374;2.066;2023-02-28T10:40:32;100848.03;;;7.88;46.05
56042;BME280;48756;41.374;2.066;2023-02-28T10:43:18;100868.81;;;7.96;45.84
56042;BME280;48756;41.374;2.066;2023-02-28T10:46:10;100862.88;;;8.37;45.69
56042;BME280;48756;41.374;2.066;2023-02-28T10:48:56;100856.00;;;8.75;44.80
56042;BME280;48756;41.374;2.066;2023-02-28T10:51:22;100858.50;;;8.25;45.50
56042;BME280;48756;41.374;2.066;2023-02-28T10:53:52;100863.63;;;7.96;45.96
56042;BME280;48756;41.374;2.066;2023-02-28T10:56:21;100866.22;;;7.97;45.82
56042;BME280;48756;41.374;2.066;2023-02-28T10:59:00;100877.63;;;8.44;45.64
56042;BME280;48756;41.374;2.066;2023-02-28T11:04:01;100873.22;;;8.26;44.83
56042;BME280;48756;41.374;2.066;2023-02-28T11:06:34;100892.25;;;8.26;45.37
56042;BME280;48756;41.374;2.066;2023-02-28T11:09:23;100880.25;;;8.83;44.51
56042;BME280;48756;41.374;2.066;2023-02-28T11:11:50;100883.69;;;9.30;44.01
56042;BME280;48756;41.374;2.066;2023-02-28T11:14:32;100895.75;;;9.60;42.98
56042;BME280;48756;41.374;2.066;2023-02-28T11:17:13;100894.09;;;9.08;43.65
56042;BME280;48756;41.374;2.066;2023-02-28T11:19:44;100919.22;;;8.99;43.89
56042;BME280;48756;41.374;2.066;2023-02-28T11:22:11;100906.22;;;8.93;43.57
56042;BME280;48756;41.374;2.066;2023-02-28T11:24:44;100904.47;;;9.25;43.22
56042;BME280;48756;41.374;2.066;2023-02-28T11:29:56;100914.00;;;9.37;42.83
56042;BME280;48756;41.374;2.066;2023-02-28T11:32:22;100906.19;;;9.28;43.07
56042;BME280;48756;41.374;2.066;2023-02-28T11:35:10;100908.72;;;9.73;44.02
56042;BME280;48756;41.374;2.066;2023-02-28T11:37:39;100917.50;;;9.14;43.00
56042;BME280;48756;41.374;2.066;2023-02-28T11:46:23;100903.53;;;9.60;43.33
56042;BME280;48756;41.374;2.066;2023-02-28T11:51:47;100900.06;;;9.64;43.27
56042;BME280;48756;41.374;2.066;2023-02-28T11:54:35;100901.72;;;9.85;42.43
56042;BME280;48756;41.374;2.066;2023-02-28T11:58:02;100902.63;;;9.80;43.01
56042;BME280;48756;41.374;2.066;2023-02-28T12:05:33;100899.09;;;9.89;43.77
56042;BME280;48756;41.374;2.066;2023-02-28T12:14:19;100893.75;;;10.17;41.83
56042;BME280;48756;41.374;2.066;2023-02-28T12:16:29;100877.88;;;10.61;40.98
56042;BME280;48756;41.374;2.066;2023-02-28T12:22:10;100876.19;;;10.57;42.28
56042;BME280;48756;41.374;2.066;2023-02-28T12:27:21;100864.69;;;10.87;39.71
56042;BME280;48756;41.374;2.066;2023-02-28T12:29:52;100858.34;;;11.12;40.76
56042;BME280;48756;41.374;2.066;2023-02-28T12:32:30;100848.81;;;11.10;41.65
56042;BME280;48756;41.374;2.066;2023-02-28T12:35:12;100840.78;;;12.03;39.42
56042;BME280;48756;41.374;2.066;2023-02-28T12:40:22;100843.00;;;11.64;39.30
56042;BME280;48756;41.374;2.066;2023-02-28T12:42:58;100829.75;;;11.83;39.29
56042;BME280;48756;41.374;2.066;2023-02-28T12:45:40;100834.41;;;11.53;39.51
56042;BME280;48756;41.374;2.066;2023-02-28T12:48:10;100834.34;;;11.61;39.40
56042;BME280;48756;41.374;2.066;2023-02-28T12:50:39;100843.66;;;11.83;39.39
56042;BME280;48756;41.374;2.066;2023-02-28T13:09:39;100834.06;;;12.47;37.33
56042;BME280;48756;41.374;2.066;2023-02-28T13:12:15;100833.75;;;12.65;38.14
56042;BME280;48756;41.374;2.066;2023-02-28T13:14:44;100828.13;;;12.88;37.78
56042;BME280;48756;41.374;2.066;2023-02-28T13:17:10;100826.97;;;13.04;37.85
56042;BME280;48756;41.374;2.066;2023-02-28T13:19:38;100824.00;;;12.75;37.03
56042;BME280;48756;41.374;2.066;2023-02-28T13:22:05;100820.00;;;13.03;37.07
56042;BME280;48756;41.374;2.066;2023-02-28T13:29:37;100822.50;;;13.09;36.23
56042;BME280;48756;41.374;2.066;2023-02-28T13:34:32;100817.84;;;13.71;35.73
56042;BME280;48756;41.374;2.066;2023-02-28T13:42:35;100819.66;;;13.68;35.46
56042;BME280;48756;41.374;2.066;2023-02-28T13:47:30;100810.78;;;14.15;35.01
56042;BME280;48756;41.374;2.066;2023-02-28T13:56:03;100811.63;;;14.16;34.57
56042;BME280;48756;41.374;2.066;2023-02-28T13:58:43;100815.56;;;13.96;34.58
56042;BME280;48756;41.374;2.066;2023-02-28T14:02:11;100818.25;;;13.93;35.20
56042;BME280;48756;41.374;2.066;2023-02-28T14:04:33;100830.09;;;13.69;35.27
56042;BME280;48756;41.374;2.066;2023-02-28T14:07:07;100824.97;;;13.65;35.17
56042;BME280;48756;41.374;2.066;2023-02-28T14:09:38;100830.34;;;13.57;35.48
56042;BME280;48756;41.374;2.066;2023-02-28T14:17:55;100839.81;;;13.20;35.56
56042;BME280;48756;41.374;2.066;2023-02-28T14:20:26;100838.97;;;13.16;35.42
56042;BME280;48756;41.374;2.066;2023-02-28T14:31:13;100840.63;;;12.72;35.84
56042;BME280;48756;41.374;2.066;2023-02-28T14:36:24;100838.31;;;13.03;35.82
56042;BME280;48756;41.374;2.066;2023-02-28T14:38:54;100839.13;;;13.07;35.45
56042;BME280;48756;41.374;2.066;2023-02-28T14:41:30;100835.63;;;13.08;35.37
56042;BME280;48756;41.374;2.066;2023-02-28T14:43:59;100842.50;;;13.15;35.00
56042;BME280;48756;41.374;2.066;2023-02-28T14:46:30;100838.38;;;13.48;33.99
56042;BME280;48756;41.374;2.066;2023-02-28T14:49:00;100840.00;;;13.55;35.04
56042;BME280;48756;41.374;2.066;2023-02-28T14:51:25;100842.38;;;13.23;35.34
56042;BME280;48756;41.374;2.066;2023-02-28T14:53:57;100839.53;;;13.33;34.30
56042;BME280;48756;41.374;2.066;2023-02-28T14:56:36;100838.84;;;13.25;35.90
56042;BME280;48756;41.374;2.066;2023-02-28T14:59:03;100825.81;;;13.67;35.26
56042;BME280;48756;41.374;2.066;2023-02-28T15:01:29;100836.09;;;13.74;34.28
56042;BME280;48756;41.374;2.066;2023-02-28T15:04:02;100845.03;;;13.66;34.58
56042;BME280;48756;41.374;2.066;2023-02-28T15:06:28;100848.41;;;13.26;35.48
56042;BME280;48756;41.374;2.066;2023-02-28T15:09:16;100838.63;;;13.37;35.58
56042;BME280;48756;41.374;2.066;2023-02-28T15:11:46;100840.97;;;13.49;35.01
56042;BME280;48756;41.374;2.066;2023-02-28T15:14:20;100850.88;;;13.35;36.17
56042;BME280;48756;41.374;2.066;2023-02-28T15:16:55;100845.31;;;13.51;35.50
56042;BME280;48756;41.374;2.066;2023-02-28T15:19:30;100844.47;;;13.50;35.36
56042;BME280;48756;41.374;2.066;2023-02-28T15:22:06;100851.13;;;13.22;34.99
56042;BME280;48756;41.374;2.066;2023-02-28T15:24:46;100845.63;;;13.35;35.20
56042;BME280;48756;41.374;2.066;2023-02-28T15:27:21;100857.91;;;13.30;35.81
56042;BME280;48756;41.374;2.066;2023-02-28T15:29:53;100849.16;;;13.33;35.79
56042;BME280;48756;41.374;2.066;2023-02-28T15:32:34;100856.59;;;13.54;36.19
56042;BME280;48756;41.374;2.066;2023-02-28T15:35:39;100851.94;;;13.68;35.41